createdAt,value
2023-05-26T00:00:27.802Z,14.54
2023-05-26T00:01:27.813Z,14.54
2023-05-26T00:02:27.833Z,14.60
2023-05-26T00:03:27.953Z,14.75
2023-05-26T00:04:27.820Z,14.91
2023-05-26T00:05:27.793Z,15.01
2023-05-26T00:06:27.758Z,15.09
2023-05-26T00:07:27.765Z,15.17
2023-05-26T00:08:27.762Z,15.21
2023-05-26T00:09:27.741Z,15.26
2023-05-26T00:10:27.722Z,15.27
2023-05-26T00:11:27.698Z,15.27
2023-05-26T00:12:27.711Z,15.28
2023-05-26T00:13:27.650Z,15.28
2023-05-26T00:14:27.678Z,15.28
2023-05-26T00:15:27.656Z,15.28
2023-05-26T00:16:27.692Z,15.28
2023-05-26T00:17:27.663Z,15.28
2023-05-26T00:18:27.662Z,15.28
2023-05-26T00:19:27.592Z,15.27
2023-05-26T00:20:27.589Z,15.24
2023-05-26T00:21:27.571Z,15.23
2023-05-26T00:22:27.608Z,15.20
2023-05-26T00:23:27.530Z,15.19
2023-05-26T00:24:27.569Z,15.15
2023-05-26T00:25:27.526Z,15.13
2023-05-26T00:26:27.521Z,15.12
2023-05-26T00:27:27.539Z,15.11
2023-05-26T00:28:27.496Z,15.09
2023-05-26T00:29:29.859Z,15.06
2023-05-26T00:30:27.609Z,15.02
2023-05-26T00:31:27.493Z,14.99
2023-05-26T00:32:27.503Z,14.94
2023-05-26T00:33:27.448Z,14.91
2023-05-26T00:34:27.450Z,14.88
2023-05-26T00:35:27.453Z,14.86
2023-05-26T00:36:27.430Z,14.87
2023-05-26T00:37:27.423Z,14.87
2023-05-26T00:38:27.367Z,14.86
2023-05-26T00:39:27.392Z,14.86
2023-05-26T00:40:27.367Z,14.86
2023-05-26T00:41:27.376Z,14.86
2023-05-26T00:42:27.340Z,14.84
2023-05-26T00:43:27.316Z,14.84
2023-05-26T00:44:27.305Z,14.80
2023-05-26T00:45:27.320Z,14.78
2023-05-26T00:46:27.353Z,14.75
2023-05-26T00:47:27.379Z,14.74
2023-05-26T00:48:27.320Z,14.69
2023-05-26T00:49:27.278Z,14.65
2023-05-26T00:50:27.505Z,14.62
2023-05-26T00:51:27.232Z,14.60
2023-05-26T00:52:27.276Z,14.57
2023-05-26T00:53:27.215Z,14.54
2023-05-26T00:54:27.244Z,14.52
2023-05-26T00:55:27.250Z,14.50
2023-05-26T00:56:27.162Z,14.47
2023-05-26T00:57:27.184Z,14.46
2023-05-26T00:58:27.154Z,14.46
2023-05-26T00:59:27.146Z,14.43
2023-05-26T01:00:27.140Z,14.42
2023-05-26T01:01:27.234Z,14.38
2023-05-26T01:02:27.173Z,14.35
2023-05-26T01:03:27.146Z,14.35
2023-05-26T01:04:27.104Z,14.35
2023-05-26T01:05:27.079Z,14.37
2023-05-26T01:06:27.110Z,14.35
2023-05-26T01:07:27.100Z,14.35
2023-05-26T01:08:27.065Z,14.35
2023-05-26T01:09:27.052Z,14.35
2023-05-26T01:10:27.042Z,14.34
2023-05-26T01:11:27.025Z,14.34
2023-05-26T01:12:27.024Z,14.32
2023-05-26T01:13:26.991Z,14.32
2023-05-26T01:14:26.971Z,14.32
2023-05-26T01:15:27.038Z,14.32
2023-05-26T01:16:26.993Z,14.31
2023-05-26T01:17:26.977Z,14.31
2023-05-26T01:18:26.936Z,14.31
2023-05-26T01:19:26.940Z,14.29
2023-05-26T01:20:26.941Z,14.29
2023-05-26T01:21:26.906Z,14.28
2023-05-26T01:22:26.877Z,14.29
2023-05-26T01:23:26.883Z,14.28
2023-05-26T01:24:26.878Z,14.28
2023-05-26T01:25:26.914Z,14.28
2023-05-26T01:26:26.868Z,14.28
2023-05-26T01:27:26.832Z,14.28
2023-05-26T01:28:26.859Z,14.28
2023-05-26T01:29:26.825Z,14.29
2023-05-26T01:30:26.812Z,14.29
2023-05-26T01:31:26.825Z,14.28
2023-05-26T01:32:26.811Z,14.27
2023-05-26T01:33:26.897Z,14.28
2023-05-26T01:34:26.769Z,14.27
2023-05-26T01:35:26.745Z,14.25
2023-05-26T01:36:26.730Z,14.25
2023-05-26T01:37:26.708Z,14.24
2023-05-26T01:38:26.724Z,14.24
2023-05-26T01:39:26.737Z,14.21
2023-05-26T01:40:27.509Z,14.21
2023-05-26T01:41:26.680Z,14.19
2023-05-26T01:42:31.237Z,14.20
2023-05-26T01:43:26.667Z,14.17
2023-05-26T01:44:26.653Z,14.16
2023-05-26T01:45:26.630Z,14.13
2023-05-26T01:46:27.567Z,14.13
2023-05-26T01:47:26.696Z,14.10
2023-05-26T01:48:26.604Z,14.07
2023-05-26T01:49:26.617Z,14.06
2023-05-26T01:50:26.571Z,14.04
2023-05-26T01:51:26.615Z,14.04
2023-05-26T01:52:26.605Z,14.02
2023-05-26T01:53:26.653Z,14.01
2023-05-26T01:54:26.547Z,13.98
2023-05-26T01:55:26.527Z,13.96
2023-05-26T01:56:26.558Z,13.94
2023-05-26T01:57:26.584Z,13.92
2023-05-26T01:58:26.525Z,13.89
2023-05-26T01:59:27.798Z,13.89
2023-05-26T02:00:26.467Z,13.88
2023-05-26T02:01:26.549Z,13.87
2023-05-26T02:02:26.508Z,13.84
2023-05-26T02:03:26.569Z,13.84
2023-05-26T02:04:26.525Z,13.84
2023-05-26T02:05:26.452Z,13.81
2023-05-26T02:06:26.404Z,13.81
2023-05-26T02:07:26.400Z,13.79
2023-05-26T02:08:26.378Z,13.77
2023-05-26T02:09:26.538Z,13.76
2023-05-26T02:10:26.408Z,13.74
2023-05-26T02:11:26.359Z,13.73
2023-05-26T02:12:26.366Z,13.71
2023-05-26T02:13:26.312Z,13.70
2023-05-26T02:14:27.050Z,13.69
2023-05-26T02:15:26.318Z,13.62
2023-05-26T02:16:26.340Z,13.59
2023-05-26T02:17:26.329Z,13.58
2023-05-26T02:18:26.282Z,13.55
2023-05-26T02:19:26.533Z,13.52
2023-05-26T02:20:26.299Z,13.49
2023-05-26T02:21:26.270Z,13.47
2023-05-26T02:22:26.259Z,13.44
2023-05-26T02:23:26.234Z,13.41
2023-05-26T02:24:27.087Z,13.41
2023-05-26T02:25:26.204Z,13.38
2023-05-26T02:26:26.188Z,13.37
2023-05-26T02:27:26.187Z,13.33
2023-05-26T02:28:26.209Z,13.30
2023-05-26T02:29:26.174Z,13.29
2023-05-26T02:30:26.142Z,13.27
2023-05-26T02:31:26.200Z,13.22
2023-05-26T02:32:26.279Z,13.22
2023-05-26T02:33:26.113Z,13.20
2023-05-26T02:34:26.213Z,13.17
2023-05-26T02:35:26.093Z,13.14
2023-05-26T02:36:26.071Z,13.11
2023-05-26T02:37:26.076Z,13.09
2023-05-26T02:38:26.077Z,13.06
2023-05-26T02:39:26.124Z,13.04
2023-05-26T02:40:26.044Z,13.00
2023-05-26T02:41:26.046Z,13.00
2023-05-26T02:42:26.017Z,12.99
2023-05-26T02:43:26.000Z,12.96
2023-05-26T02:44:25.981Z,12.93
2023-05-26T02:45:25.977Z,12.93
2023-05-26T02:46:26.182Z,12.93
2023-05-26T02:47:25.952Z,12.92
2023-05-26T02:48:25.932Z,12.93
2023-05-26T02:49:25.965Z,12.92
2023-05-26T02:50:25.935Z,12.89
2023-05-26T02:51:25.914Z,12.92
2023-05-26T02:52:25.883Z,12.89
2023-05-26T02:53:25.906Z,12.89
2023-05-26T02:54:25.873Z,12.89
2023-05-26T02:55:26.050Z,12.89
2023-05-26T02:56:25.849Z,12.89
2023-05-26T02:57:25.867Z,12.88
2023-05-26T02:58:25.833Z,12.87
2023-05-26T02:59:25.827Z,12.84
2023-05-26T03:00:26.906Z,12.82
2023-05-26T03:01:26.009Z,12.81
2023-05-26T03:02:25.799Z,12.81
2023-05-26T03:03:25.991Z,12.75
2023-05-26T03:04:25.820Z,12.75
2023-05-26T03:05:25.790Z,12.74
2023-05-26T03:06:25.737Z,12.71
2023-05-26T03:07:25.763Z,12.71
2023-05-26T03:08:25.767Z,12.70
2023-05-26T03:09:25.711Z,12.69
2023-05-26T03:10:25.706Z,12.67
2023-05-26T03:11:25.678Z,12.66
2023-05-26T03:12:25.705Z,12.67
2023-05-26T03:13:25.675Z,12.63
2023-05-26T03:14:25.715Z,12.63
2023-05-26T03:15:25.664Z,12.60
2023-05-26T03:16:25.676Z,12.60
2023-05-26T03:17:25.651Z,12.59
2023-05-26T03:18:25.666Z,12.60
2023-05-26T03:19:25.609Z,12.59
2023-05-26T03:20:25.741Z,12.62
2023-05-26T03:21:48.938Z,12.60
2023-05-26T03:22:39.297Z,12.60
2023-05-26T03:23:25.566Z,12.60
2023-05-26T03:24:25.537Z,12.59
2023-05-26T03:25:25.534Z,12.59
2023-05-26T03:26:25.540Z,12.62
2023-05-26T03:27:25.542Z,12.62
2023-05-26T03:28:25.509Z,12.63
2023-05-26T03:29:25.505Z,12.63
2023-05-26T03:30:25.537Z,12.62
2023-05-26T03:31:25.577Z,12.62
2023-05-26T03:32:25.499Z,12.60
2023-05-26T03:33:25.519Z,12.59
2023-05-26T03:34:25.561Z,12.56
2023-05-26T03:35:25.413Z,12.56
2023-05-26T03:36:25.423Z,12.54
2023-05-26T03:37:25.387Z,12.54
2023-05-26T03:38:25.405Z,12.57
2023-05-26T03:39:25.364Z,12.59
2023-05-26T03:40:25.392Z,12.60
2023-05-26T03:41:25.384Z,12.63
2023-05-26T03:42:25.410Z,12.66
2023-05-26T03:43:25.363Z,12.66
2023-05-26T03:44:25.335Z,12.66
2023-05-26T03:45:25.357Z,12.64
2023-05-26T03:46:25.366Z,12.64
2023-05-26T03:47:25.318Z,12.64
2023-05-26T03:48:25.308Z,12.63
2023-05-26T03:49:25.286Z,12.62
2023-05-26T03:50:26.117Z,12.62
2023-05-26T03:51:25.276Z,12.63
2023-05-26T03:52:25.245Z,12.60
2023-05-26T03:53:25.921Z,12.59
2023-05-26T03:54:25.269Z,12.57
2023-05-26T03:55:25.264Z,12.59
2023-05-26T03:56:26.718Z,12.57
2023-05-26T03:57:25.216Z,12.57
2023-05-26T03:58:25.172Z,12.59
2023-05-26T03:59:25.147Z,12.57
2023-05-26T04:00:25.152Z,12.57
2023-05-26T04:01:25.126Z,12.57
2023-05-26T04:02:25.298Z,12.57
2023-05-26T04:03:25.185Z,12.57
2023-05-26T04:04:25.170Z,12.56
2023-05-26T04:05:25.091Z,12.57
2023-05-26T04:06:26.037Z,12.57
2023-05-26T04:07:25.069Z,12.57
2023-05-26T04:08:25.074Z,12.60
2023-05-26T04:09:25.084Z,12.59
2023-05-26T04:10:25.032Z,12.60
2023-05-26T04:11:25.023Z,12.62
2023-05-26T04:12:25.008Z,12.60
2023-05-26T04:13:24.993Z,12.60
2023-05-26T04:14:25.025Z,12.59
2023-05-26T04:15:24.991Z,12.59
2023-05-26T04:16:25.037Z,12.60
2023-05-26T04:17:25.031Z,12.59
2023-05-26T04:18:24.967Z,12.57
2023-05-26T04:19:24.960Z,12.59
2023-05-26T04:20:25.055Z,12.59
2023-05-26T04:21:24.915Z,12.59
2023-05-26T04:22:25.429Z,12.52
2023-05-26T04:23:24.987Z,12.56
2023-05-26T04:24:24.882Z,12.57
2023-05-26T04:25:24.924Z,12.57
2023-05-26T04:26:24.917Z,12.59
2023-05-26T04:27:24.861Z,12.59
2023-05-26T04:28:24.827Z,12.60
2023-05-26T04:29:24.815Z,12.62
2023-05-26T04:30:25.482Z,12.64
2023-05-26T04:31:24.875Z,12.64
2023-05-26T04:32:24.915Z,12.66
2023-05-26T04:33:25.035Z,12.66
2023-05-26T04:34:24.779Z,12.69
2023-05-26T04:35:24.758Z,12.71
2023-05-26T04:36:24.750Z,12.74
2023-05-26T04:37:24.736Z,12.75
2023-05-26T04:38:24.729Z,12.77
2023-05-26T04:39:24.741Z,12.75
2023-05-26T04:40:24.741Z,12.77
2023-05-26T04:41:24.716Z,12.75
2023-05-26T04:42:24.702Z,12.77
2023-05-26T04:43:24.675Z,12.77
2023-05-26T04:44:24.671Z,12.78
2023-05-26T04:45:24.644Z,12.78
2023-05-26T04:46:24.711Z,12.78
2023-05-26T04:47:24.722Z,12.81
2023-05-26T04:48:24.631Z,12.84
2023-05-26T04:49:24.664Z,12.85
2023-05-26T04:50:24.606Z,12.87
2023-05-26T04:51:24.594Z,12.89
2023-05-26T04:52:24.580Z,12.89
2023-05-26T04:53:24.569Z,12.93
2023-05-26T04:54:24.589Z,12.92
2023-05-26T04:55:24.537Z,12.92
2023-05-26T04:56:24.547Z,12.95
2023-05-26T04:57:24.546Z,12.96
2023-05-26T04:58:24.535Z,12.99
2023-05-26T04:59:24.543Z,13.02
2023-05-26T05:00:24.480Z,13.06
2023-05-26T05:01:24.561Z,13.06
2023-05-26T05:02:24.535Z,13.11
2023-05-26T05:03:24.495Z,13.14
2023-05-26T05:04:24.470Z,13.15
2023-05-26T05:05:24.528Z,13.20
2023-05-26T05:06:24.481Z,13.22
2023-05-26T05:07:25.103Z,13.24
2023-05-26T05:08:25.339Z,13.24
2023-05-26T05:09:24.379Z,13.25
2023-05-26T05:10:24.408Z,13.24
2023-05-26T05:11:24.357Z,13.24
2023-05-26T05:12:24.367Z,13.25
2023-05-26T05:13:24.336Z,13.29
2023-05-26T05:14:24.382Z,13.30
2023-05-26T05:15:24.356Z,13.36
2023-05-26T05:16:24.330Z,13.38
2023-05-26T05:17:24.319Z,13.43
2023-05-26T05:18:24.287Z,13.46
2023-05-26T05:19:24.304Z,13.52
2023-05-26T05:20:24.324Z,13.55
2023-05-26T05:21:24.333Z,13.61
2023-05-26T05:22:24.236Z,13.63
2023-05-26T05:23:24.949Z,13.65
2023-05-26T05:24:24.232Z,13.65
2023-05-26T05:25:24.985Z,13.67
2023-05-26T05:26:24.219Z,13.70
2023-05-26T05:27:24.178Z,13.74
2023-05-26T05:28:24.212Z,13.76
2023-05-26T05:29:24.167Z,13.74
2023-05-26T05:30:24.212Z,13.71
2023-05-26T05:31:24.154Z,13.71
2023-05-26T05:32:24.185Z,13.73
2023-05-26T05:33:24.156Z,13.69
2023-05-26T05:34:24.168Z,13.71
2023-05-26T05:35:24.142Z,13.76
2023-05-26T05:36:24.092Z,13.77
2023-05-26T05:37:24.071Z,13.79
2023-05-26T05:38:24.909Z,13.83
2023-05-26T05:39:24.058Z,13.88
2023-05-26T05:40:24.064Z,13.94
2023-05-26T05:41:24.104Z,13.99
2023-05-26T05:42:24.050Z,14.04
2023-05-26T05:43:24.022Z,14.10
2023-05-26T05:44:24.023Z,14.14
2023-05-26T05:45:23.975Z,14.17
2023-05-26T05:46:24.011Z,14.21
2023-05-26T05:47:23.996Z,14.28
2023-05-26T05:48:24.011Z,14.32
2023-05-26T05:49:23.924Z,14.37
2023-05-26T05:50:23.939Z,14.42
2023-05-26T05:51:23.916Z,14.47
2023-05-26T05:52:23.978Z,14.50
2023-05-26T05:53:24.585Z,14.52
2023-05-26T05:54:23.949Z,14.56
2023-05-26T05:55:23.863Z,14.61
2023-05-26T05:56:23.909Z,14.65
2023-05-26T05:57:23.904Z,14.67
2023-05-26T05:58:23.913Z,14.74
2023-05-26T05:59:23.824Z,14.80
2023-05-26T06:00:23.817Z,14.86
2023-05-26T06:01:23.796Z,14.91
2023-05-26T06:02:23.943Z,14.95
2023-05-26T06:03:23.925Z,14.94
2023-05-26T06:04:23.979Z,14.93
2023-05-26T06:05:23.754Z,14.95
2023-05-26T06:06:24.674Z,14.99
2023-05-26T06:07:23.826Z,15.05
2023-05-26T06:08:24.801Z,15.27
2023-05-26T06:09:23.785Z,15.78
2023-05-26T06:10:23.693Z,16.30
2023-05-26T06:11:23.773Z,16.42
2023-05-26T06:12:23.748Z,16.33
2023-05-26T06:13:23.668Z,16.14
2023-05-26T06:14:23.659Z,16.03
2023-05-26T06:15:23.651Z,15.96
2023-05-26T06:16:23.702Z,15.93
2023-05-26T06:17:23.712Z,15.89
2023-05-26T06:18:23.671Z,15.84
2023-05-26T06:19:23.666Z,15.81
2023-05-26T06:20:23.699Z,15.82
2023-05-26T06:21:23.602Z,15.82
2023-05-26T06:22:23.569Z,15.89
2023-05-26T06:23:23.599Z,15.92
2023-05-26T06:24:23.548Z,15.89
2023-05-26T06:25:23.536Z,15.93
2023-05-26T06:26:23.529Z,15.96
2023-05-26T06:27:24.080Z,15.96
2023-05-26T06:28:23.500Z,15.97
2023-05-26T06:29:23.486Z,16.00
2023-05-26T06:30:23.492Z,16.04
2023-05-26T06:31:23.573Z,16.04
2023-05-26T06:32:23.467Z,16.03
2023-05-26T06:33:23.449Z,16.03
2023-05-26T06:34:23.457Z,16.06
2023-05-26T06:35:23.439Z,16.09
2023-05-26T06:36:23.599Z,16.15
2023-05-26T06:37:23.406Z,16.20
2023-05-26T06:38:23.440Z,16.25
2023-05-26T06:39:25.653Z,16.31
2023-05-26T06:40:23.379Z,16.37
2023-05-26T06:41:23.486Z,16.41
2023-05-26T06:42:23.360Z,16.44
2023-05-26T06:43:23.371Z,16.49
2023-05-26T06:44:23.331Z,16.53
2023-05-26T06:45:23.338Z,16.58
2023-05-26T06:46:23.306Z,16.59
2023-05-26T06:47:23.520Z,16.59
2023-05-26T06:48:23.337Z,16.62
2023-05-26T06:49:23.306Z,16.65
2023-05-26T06:50:23.277Z,16.68
2023-05-26T06:51:23.248Z,16.71
2023-05-26T06:52:23.278Z,16.74
2023-05-26T06:53:23.235Z,16.74
2023-05-26T06:54:23.286Z,16.78
2023-05-26T06:55:23.252Z,16.80
2023-05-26T06:56:23.240Z,16.85
2023-05-26T06:57:23.193Z,16.89
2023-05-26T06:58:23.173Z,16.95
2023-05-26T06:59:23.541Z,16.98
2023-05-26T07:00:23.164Z,17.03
2023-05-26T07:01:23.254Z,17.07
2023-05-26T07:02:23.352Z,17.13
2023-05-26T07:03:23.124Z,17.17
2023-05-26T07:04:23.139Z,17.20
2023-05-26T07:05:23.113Z,17.25
2023-05-26T07:06:25.697Z,17.30
2023-05-26T07:07:23.093Z,17.35
2023-05-26T07:08:23.070Z,17.41
2023-05-26T07:09:23.069Z,17.43
2023-05-26T07:10:23.137Z,17.44
2023-05-26T07:11:23.035Z,17.48
2023-05-26T07:12:24.448Z,17.51
2023-05-26T07:13:23.146Z,17.54
2023-05-26T07:14:23.023Z,17.50
2023-05-26T07:15:23.117Z,17.51
2023-05-26T07:16:23.005Z,17.54
2023-05-26T07:17:23.007Z,17.62
2023-05-26T07:18:23.084Z,17.66
2023-05-26T07:19:22.959Z,17.73
2023-05-26T07:20:23.102Z,17.79
2023-05-26T07:21:22.957Z,17.85
2023-05-26T07:22:23.132Z,17.91
2023-05-26T07:23:22.968Z,17.97
2023-05-26T07:24:22.885Z,17.99
2023-05-26T07:25:22.897Z,18.03
2023-05-26T07:26:22.899Z,18.07
2023-05-26T07:27:22.880Z,18.12
2023-05-26T07:28:22.925Z,18.17
2023-05-26T07:29:22.830Z,18.19
2023-05-26T07:30:22.838Z,18.21
2023-05-26T07:31:22.881Z,18.27
2023-05-26T07:32:22.800Z,18.28
2023-05-26T07:33:22.797Z,18.31
2023-05-26T07:34:22.767Z,18.33
2023-05-26T07:35:22.778Z,18.27
2023-05-26T07:36:22.767Z,18.28
2023-05-26T07:37:22.765Z,18.29
2023-05-26T07:38:22.798Z,18.34
2023-05-26T07:39:22.784Z,18.36
2023-05-26T07:40:22.818Z,18.40
2023-05-26T07:41:22.751Z,18.44
2023-05-26T07:42:22.774Z,18.49
2023-05-26T07:43:22.701Z,18.54
2023-05-26T07:44:22.686Z,18.58
2023-05-26T07:45:23.625Z,18.62
2023-05-26T07:46:22.665Z,18.65
2023-05-26T07:47:22.690Z,18.62
2023-05-26T07:48:22.748Z,18.65
2023-05-26T07:49:22.656Z,18.67
2023-05-26T07:50:22.623Z,18.70
2023-05-26T07:51:22.612Z,18.72
2023-05-26T07:52:22.590Z,18.76
2023-05-26T07:53:22.568Z,18.82
2023-05-26T07:54:22.576Z,18.87
2023-05-26T07:55:22.552Z,18.90
2023-05-26T07:56:22.721Z,18.92
2023-05-26T07:58:22.575Z,18.98
2023-05-26T07:59:22.502Z,19.02
2023-05-26T08:00:22.571Z,19.06
2023-05-26T08:01:22.541Z,19.11
2023-05-26T08:02:22.500Z,19.18
2023-05-26T08:03:22.759Z,19.21
2023-05-26T08:04:22.454Z,19.25
2023-05-26T08:05:22.492Z,19.31
2023-05-26T08:06:27.119Z,19.32
2023-05-26T08:07:22.420Z,19.33
2023-05-26T08:08:22.390Z,19.35
2023-05-26T08:09:22.448Z,19.38
2023-05-26T08:10:22.407Z,19.39
2023-05-26T08:11:22.370Z,19.39
2023-05-26T08:12:22.360Z,19.39
2023-05-26T08:13:22.353Z,19.40
2023-05-26T08:14:22.421Z,19.46
2023-05-26T08:15:33.096Z,19.48
2023-05-26T08:16:22.447Z,19.53
2023-05-26T08:17:22.383Z,19.57
2023-05-26T08:18:22.286Z,19.60
2023-05-26T08:19:22.381Z,19.63
2023-05-26T08:20:22.506Z,19.68
2023-05-26T08:22:34.923Z,19.76
2023-05-26T08:23:45.438Z,19.72
2023-05-26T08:24:34.932Z,19.69
2023-05-26T08:25:34.930Z,19.69
2023-05-26T08:26:34.943Z,19.72
2023-05-26T08:27:35.851Z,19.76
2023-05-26T08:28:35.497Z,19.79
2023-05-26T08:29:34.974Z,19.87
2023-05-26T08:30:34.902Z,19.93
2023-05-26T08:31:35.022Z,20.00
2023-05-26T08:32:34.906Z,20.06
2023-05-26T08:33:35.031Z,20.10
2023-05-26T08:34:34.895Z,20.16
2023-05-26T08:35:34.893Z,20.20
2023-05-26T08:36:34.833Z,20.20
2023-05-26T08:37:34.902Z,20.25
2023-05-26T08:38:35.137Z,20.27
2023-05-26T08:39:34.872Z,20.24
2023-05-26T08:40:34.907Z,20.27
2023-05-26T08:41:34.940Z,20.28
2023-05-26T08:42:35.282Z,20.30
2023-05-26T08:43:45.177Z,20.27
2023-05-26T08:44:34.798Z,20.25
2023-05-26T08:45:34.720Z,20.25
2023-05-26T08:46:34.713Z,20.30
2023-05-26T08:47:34.715Z,20.34
2023-05-26T08:48:34.684Z,20.39
2023-05-26T08:49:34.726Z,20.42
2023-05-26T08:50:34.681Z,20.47
2023-05-26T08:51:34.629Z,20.46
2023-05-26T08:52:34.670Z,20.38
2023-05-26T08:53:35.502Z,20.38
2023-05-26T08:54:34.596Z,20.38
2023-05-26T08:55:34.612Z,20.39
2023-05-26T08:56:34.608Z,20.42
2023-05-26T08:57:34.593Z,20.46
2023-05-26T08:58:34.581Z,20.53
2023-05-26T08:59:35.449Z,20.58
2023-05-26T09:00:35.412Z,20.64
2023-05-26T09:01:34.575Z,20.68
2023-05-26T09:02:34.736Z,20.69
2023-05-26T09:03:34.650Z,20.74
2023-05-26T09:04:34.512Z,20.71
2023-05-26T09:05:35.125Z,20.69
2023-05-26T09:06:35.034Z,20.71
2023-05-26T09:07:34.630Z,20.71
2023-05-26T09:08:34.542Z,20.72
2023-05-26T09:09:34.437Z,20.77
2023-05-26T09:10:34.450Z,20.83
2023-05-26T09:11:35.328Z,20.87
2023-05-26T09:12:34.561Z,20.84
2023-05-26T09:13:34.390Z,20.64
2023-05-26T09:14:34.413Z,20.62
2023-05-26T09:15:34.470Z,20.64
2023-05-26T09:16:34.620Z,20.69
2023-05-26T09:17:34.361Z,20.76
2023-05-26T09:18:34.375Z,20.79
2023-05-26T09:19:34.391Z,20.80
2023-05-26T09:20:35.183Z,20.77
2023-05-26T09:21:34.338Z,20.69
2023-05-26T09:22:34.329Z,20.66
2023-05-26T09:23:34.319Z,20.64
2023-05-26T09:24:34.312Z,20.65
2023-05-26T09:25:34.346Z,20.65
2023-05-26T09:26:34.276Z,20.68
2023-05-26T09:27:34.353Z,20.76
2023-05-26T09:28:34.391Z,20.83
2023-05-26T09:29:34.228Z,20.90
2023-05-26T09:30:34.399Z,20.96
2023-05-26T09:31:34.310Z,20.99
2023-05-26T09:32:34.256Z,21.06
2023-05-26T09:33:34.179Z,21.13
2023-05-26T09:34:34.164Z,21.17
2023-05-26T09:35:34.148Z,21.21
2023-05-26T09:36:34.144Z,21.26
2023-05-26T09:37:34.152Z,21.27
2023-05-26T09:38:34.120Z,21.26
2023-05-26T09:39:34.441Z,21.26
2023-05-26T09:40:34.983Z,21.23
2023-05-26T09:41:34.119Z,21.14
2023-05-26T09:42:34.079Z,21.04
2023-05-26T09:43:34.250Z,20.99
2023-05-26T09:44:34.086Z,20.77
2023-05-26T09:45:34.044Z,20.76
2023-05-26T09:46:34.182Z,20.81
2023-05-26T09:47:34.052Z,20.90
2023-05-26T09:48:34.010Z,20.95
2023-05-26T09:49:33.997Z,20.87
2023-05-26T09:50:34.122Z,20.86
2023-05-26T09:51:38.464Z,20.91
2023-05-26T09:52:33.967Z,20.90
2023-05-26T09:53:34.500Z,20.98
2023-05-26T09:54:33.948Z,21.05
2023-05-26T09:55:34.026Z,21.08
2023-05-26T09:56:35.702Z,21.08
2023-05-26T09:57:35.590Z,21.11
2023-05-26T09:58:35.641Z,21.16
2023-05-26T09:59:33.899Z,21.23
2023-05-26T10:00:33.883Z,21.24
2023-05-26T10:01:33.939Z,21.29
2023-05-26T10:02:33.892Z,21.29
2023-05-26T10:03:33.869Z,21.39
2023-05-26T10:04:33.886Z,21.48
2023-05-26T10:05:33.905Z,21.51
2023-05-26T10:06:33.829Z,21.44
2023-05-26T10:07:33.820Z,21.42
2023-05-26T10:08:33.872Z,21.50
2023-05-26T10:09:35.108Z,21.57
2023-05-26T10:10:33.864Z,21.67
2023-05-26T10:11:35.290Z,21.75
2023-05-26T10:12:37.869Z,21.78
2023-05-26T10:13:38.407Z,21.78
2023-05-26T10:14:33.738Z,21.82
2023-05-26T10:15:33.739Z,21.88
2023-05-26T10:16:33.875Z,21.94
2023-05-26T10:17:33.780Z,21.95
2023-05-26T10:18:33.681Z,21.98
2023-05-26T10:19:33.711Z,21.94
2023-05-26T10:20:34.525Z,21.83
2023-05-26T10:21:33.698Z,21.81
2023-05-26T10:22:34.304Z,21.81
2023-05-26T10:23:34.627Z,21.83
2023-05-26T10:24:33.658Z,21.94
2023-05-26T10:25:33.616Z,22.06
2023-05-26T10:26:33.623Z,22.14
2023-05-26T10:27:33.622Z,22.25
2023-05-26T10:28:33.571Z,22.31
2023-05-26T10:29:34.364Z,22.34
2023-05-26T10:30:33.573Z,22.41
2023-05-26T10:31:33.592Z,22.50
2023-05-26T10:32:33.564Z,22.52
2023-05-26T10:33:33.706Z,22.53
2023-05-26T10:34:33.522Z,22.56
2023-05-26T10:35:33.506Z,22.59
2023-05-26T10:36:34.440Z,22.67
2023-05-26T10:37:33.498Z,22.72
2023-05-26T10:38:33.492Z,22.77
2023-05-26T10:39:33.460Z,22.77
2023-05-26T10:40:33.564Z,22.77
2023-05-26T10:41:34.053Z,22.82
2023-05-26T10:42:33.425Z,22.84
2023-05-26T10:43:33.432Z,22.75
2023-05-26T10:44:33.397Z,22.84
2023-05-26T10:45:33.519Z,22.87
2023-05-26T10:46:33.440Z,22.94
2023-05-26T10:47:33.387Z,23.01
2023-05-26T10:48:33.379Z,22.97
2023-05-26T10:49:33.467Z,23.02
2023-05-26T10:50:33.365Z,23.11
2023-05-26T10:51:33.437Z,23.22
2023-05-26T10:52:33.440Z,23.26
2023-05-26T10:53:33.822Z,23.32
2023-05-26T10:54:33.383Z,23.40
2023-05-26T10:55:33.276Z,23.43
2023-05-26T10:56:33.325Z,23.38
2023-05-26T10:57:33.377Z,23.34
2023-05-26T10:58:33.240Z,23.32
2023-05-26T10:59:33.421Z,23.32
2023-05-26T11:00:33.291Z,23.05
2023-05-26T11:01:33.273Z,22.78
2023-05-26T11:02:33.225Z,22.53
2023-05-26T11:03:33.216Z,22.32
2023-05-26T11:04:33.176Z,22.09
2023-05-26T11:05:33.900Z,21.98
2023-05-26T11:06:33.191Z,21.98
2023-05-26T11:07:33.278Z,21.90
2023-05-26T11:08:35.832Z,21.81
2023-05-26T11:09:33.228Z,21.74
2023-05-26T11:10:34.015Z,21.67
2023-05-26T11:11:33.136Z,21.56
2023-05-26T11:12:33.155Z,21.59
2023-05-26T11:13:33.089Z,21.61
2023-05-26T11:14:33.093Z,21.71
2023-05-26T11:15:33.092Z,21.79
2023-05-26T11:16:33.163Z,21.92
2023-05-26T11:17:33.148Z,22.02
2023-05-26T11:18:33.050Z,22.13
2023-05-26T11:19:42.501Z,22.20
2023-05-26T11:20:33.016Z,22.28
2023-05-26T11:21:33.017Z,22.29
2023-05-26T11:22:33.053Z,22.16
2023-05-26T11:23:33.080Z,22.17
2023-05-26T11:25:58.507Z,22.12
2023-05-26T11:26:57.442Z,22.16
2023-05-26T11:27:58.416Z,22.23
2023-05-26T11:28:59.179Z,22.29
2023-05-26T11:29:57.382Z,22.25
2023-05-26T11:30:58.245Z,22.12
2023-05-26T11:32:05.238Z,21.98
2023-05-26T11:32:57.413Z,21.94
2023-05-26T11:33:58.070Z,21.95
2023-05-26T22:46:28.669Z,15.92
2023-05-26T22:47:37.517Z,15.89
2023-05-26T22:48:27.043Z,15.92
2023-05-26T22:49:28.169Z,15.92
2023-05-26T22:50:27.080Z,15.92
2023-05-26T22:51:27.001Z,15.92
2023-05-26T22:52:29.592Z,15.89
2023-05-26T22:53:27.114Z,15.89
2023-05-26T22:55:49.227Z,15.89
2023-05-26T22:56:43.759Z,15.88
2023-05-26T22:57:43.736Z,15.88
2023-05-26T22:58:46.358Z,15.86
2023-05-26T22:59:43.831Z,15.85
2023-05-26T23:00:43.812Z,15.86
2023-05-26T23:01:43.691Z,15.84
2023-05-26T23:02:43.777Z,15.82
2023-05-26T23:03:45.119Z,15.81
2023-05-26T23:04:45.461Z,15.81
2023-05-26T23:05:43.641Z,15.81
2023-05-26T23:06:43.994Z,15.79
2023-05-26T23:07:45.169Z,15.81
2023-05-26T23:08:43.667Z,15.78
2023-05-26T23:09:43.601Z,15.79
2023-05-26T23:10:43.819Z,15.78
2023-05-26T23:11:45.602Z,15.78
2023-05-26T23:12:46.241Z,15.78
2023-05-26T23:13:43.576Z,15.76
2023-05-26T23:14:43.797Z,15.74
2023-05-26T23:15:43.578Z,15.75
2023-05-26T23:16:43.657Z,15.74
2023-05-26T23:17:43.602Z,15.72
2023-05-26T23:18:43.478Z,15.70
2023-05-26T23:19:44.685Z,15.67
2023-05-26T23:20:44.824Z,15.67
2023-05-26T23:21:43.541Z,15.66
2023-05-26T23:22:43.494Z,15.63
2023-05-26T23:23:43.615Z,15.63
2023-05-26T23:24:43.469Z,15.61
2023-05-26T23:25:44.600Z,15.61
2023-05-26T23:26:45.532Z,15.60
2023-05-26T23:27:47.941Z,15.60
2023-05-26T23:28:43.396Z,15.59
2023-05-26T23:29:43.612Z,15.57
2023-05-26T23:30:43.668Z,15.57
2023-05-26T23:31:46.326Z,15.56
2023-05-26T23:32:45.986Z,15.56
2023-05-26T23:33:43.330Z,15.51
2023-05-26T23:34:43.696Z,15.48
2023-05-26T23:35:44.718Z,15.46
2023-05-26T23:36:43.336Z,15.45
2023-05-26T23:37:43.332Z,15.45
2023-05-26T23:38:43.498Z,15.45
2023-05-26T23:39:43.270Z,15.42
2023-05-26T23:40:48.914Z,15.42
2023-05-26T23:41:43.249Z,15.41
2023-05-26T23:42:43.554Z,15.38
2023-05-26T23:43:45.897Z,15.36
2023-05-26T23:44:43.236Z,15.33
2023-05-26T23:45:45.994Z,15.33
2023-05-26T23:46:43.313Z,15.31
2023-05-26T23:47:43.183Z,15.30
2023-05-26T23:48:43.288Z,15.27
2023-05-26T23:49:44.899Z,15.26
2023-05-26T23:50:43.148Z,15.23
2023-05-26T23:51:43.164Z,15.23
2023-05-26T23:52:44.047Z,15.19
2023-05-26T23:53:43.542Z,15.19
2023-05-26T23:54:48.524Z,15.15
2023-05-26T23:55:43.322Z,15.12
2023-05-26T23:56:44.430Z,15.11
2023-05-26T23:57:47.523Z,15.09
2023-05-26T23:58:43.064Z,15.05
2023-05-26T23:59:50.131Z,15.02
